Time;durP1;ratioP1;P1;durP2;ratioP2;P2;SDS_P1;SDS_P2;PMS_P1;PMS_P2;Temp;Humidity;BMP_temperature;BMP_pressure;BME280_temperature;BME280_humidity;BME280_pressure;Samples;Min_cycle;Max_cycle;Signal;HPM_P1;HPM_P2
2022/03/21 00:01:18;;;;;;;9.27;8.25;;;17.00;58.50;;;;;;10383345;28;20045;-62
2022/03/21 00:06:19;;;;;;;9.75;8.70;;;17.00;58.40;;;;;;10404086;28;20090;-62
2022/03/21 00:11:20;;;;;;;10.57;9.27;;;17.00;58.40;;;;;;10418501;28;20029;-62
2022/03/21 00:16:21;;;;;;;10.50;8.80;;;17.00;58.30;;;;;;10370305;28;20474;-62
2022/03/21 00:21:22;;;;;;;9.30;8.35;;;17.00;58.20;;;;;;10377855;28;20116;-62
2022/03/21 00:26:22;;;;;;;11.20;8.98;;;17.10;58.10;;;;;;10377584;28;20049;-62
2022/03/21 00:31:23;;;;;;;10.57;9.48;;;17.00;58.10;;;;;;10373068;28;20044;-62
2022/03/21 00:36:24;;;;;;;9.63;8.27;;;17.00;58.00;;;;;;10377557;28;20166;-62
2022/03/21 00:41:25;;;;;;;10.80;8.93;;;17.00;57.90;;;;;;10377448;28;20030;-62
2022/03/21 00:46:26;;;;;;;9.80;8.85;;;17.00;57.80;;;;;;10376870;28;20069;-62
2022/03/21 00:51:27;;;;;;;10.55;8.90;;;17.00;57.80;;;;;;10372557;28;20109;-62
2022/03/21 00:56:27;;;;;;;10.82;9.50;;;17.00;57.80;;;;;;10377597;28;20113;-62
2022/03/21 01:01:29;;;;;;;11.73;9.95;;;17.00;57.60;;;;;;10400178;28;20032;-62
2022/03/21 01:06:30;;;;;;;10.18;9.05;;;17.00;57.70;;;;;;10392587;28;20516;-62
2022/03/21 01:11:30;;;;;;;9.65;8.75;;;17.00;57.70;;;;;;10415046;28;20039;-62
2022/03/21 01:16:31;;;;;;;11.60;8.70;;;17.00;57.50;;;;;;10375033;28;20038;-62
2022/03/21 01:21:33;;;;;;;10.13;9.02;;;17.00;57.50;;;;;;10373654;28;20491;-62
2022/03/21 01:26:33;;;;;;;10.60;9.23;;;17.00;57.50;;;;;;10357579;28;20493;-62
2022/03/21 01:31:34;;;;;;;9.23;8.32;;;17.00;57.40;;;;;;10375231;28;20037;-62
2022/03/21 01:36:35;;;;;;;10.40;9.32;;;17.00;57.40;;;;;;10374935;28;20034;-62
2022/03/21 01:41:36;;;;;;;10.07;8.98;;;17.00;57.20;;;;;;10374448;28;20034;-62
2022/03/21 01:46:39;;;;;;;9.73;8.68;;;17.00;57.20;;;;;;10374479;28;20056;-62
2022/03/21 01:51:41;;;;;;;9.90;8.98;;;17.00;57.20;;;;;;10383604;28;20041;-62
2022/03/21 01:56:45;;;;;;;9.13;8.15;;;17.00;57.20;;;;;;10374771;28;20034;-62
2022/03/21 02:01:46;;;;;;;9.27;8.38;;;17.00;57.10;;;;;;10400162;28;20422;-62
2022/03/21 02:06:46;;;;;;;10.30;9.30;;;17.00;56.90;;;;;;10373856;28;20120;-62
2022/03/21 02:11:47;;;;;;;9.43;8.50;;;17.00;56.90;;;;;;10369466;28;20030;-62
2022/03/21 02:16:48;;;;;;;9.50;8.50;;;17.00;56.90;;;;;;10369106;28;20034;-62
2022/03/21 02:22:22;;;;;;;9.40;8.43;;;17.00;56.80;;;;;;10373474;28;20493;-62
2022/03/21 02:27:26;;;;;;;10.30;9.30;;;17.00;56.80;;;;;;10373296;28;20529;-62
2022/03/21 02:32:28;;;;;;;9.95;8.95;;;17.00;56.80;;;;;;10372923;28;20093;-62
2022/03/21 02:37:29;;;;;;;10.75;9.30;;;17.00;56.50;;;;;;10368511;28;20037;-62
2022/03/21 02:42:30;;;;;;;8.82;7.93;;;17.00;56.60;;;;;;10368714;28;20413;-62
2022/03/21 02:47:31;;;;;;;9.25;7.80;;;17.00;56.40;;;;;;10372557;28;20106;-62
2022/03/21 02:52:32;;;;;;;10.32;8.57;;;17.00;56.40;;;;;;10371995;28;20018;-62
2022/03/21 02:57:33;;;;;;;8.93;7.55;;;17.10;56.30;;;;;;10367985;28;20069;-62
2022/03/21 03:02:33;;;;;;;8.60;7.53;;;17.10;56.30;;;;;;10372314;28;20462;-62
2022/03/21 03:07:35;;;;;;;9.55;8.63;;;17.10;56.20;;;;;;10407989;28;20108;-62
2022/03/21 03:12:35;;;;;;;9.63;8.52;;;17.10;56.10;;;;;;10412873;28;20029;-62
2022/03/21 03:17:36;;;;;;;11.18;8.55;;;17.10;56.10;;;;;;10412656;28;20418;-62
2022/03/21 03:22:39;;;;;;;9.98;8.90;;;17.10;56.20;;;;;;10412742;28;20064;-62
2022/03/21 03:27:40;;;;;;;11.68;8.60;;;17.00;56.20;;;;;;10412264;28;20069;-62
2022/03/21 03:32:41;;;;;;;9.10;8.20;;;17.10;56.10;;;;;;10381538;28;20113;-62
2022/03/21 03:37:41;;;;;;;10.27;8.77;;;17.10;56.00;;;;;;10412418;28;20029;-62
2022/03/21 03:42:42;;;;;;;9.13;8.23;;;17.10;55.90;;;;;;10412296;28;20439;-62
2022/03/21 03:47:43;;;;;;;10.15;8.35;;;17.10;55.70;;;;;;10412083;28;20080;-62
2022/03/21 03:52:46;;;;;;;9.55;8.60;;;17.10;55.60;;;;;;10373530;28;20030;-65
2022/03/21 03:57:47;;;;;;;9.30;8.35;;;17.10;55.40;;;;;;10371376;28;20022;-62
2022/03/21 04:08:07;;;;;;;9.03;7.87;;;17.10;55.40;;;;;;10418470;28;20478;-62
2022/03/21 04:13:08;;;;;;;8.50;7.60;;;17.20;55.50;;;;;;10418939;28;20112;-62
2022/03/21 04:18:09;;;;;;;10.20;8.52;;;17.20;55.20;;;;;;10402839;28;20473;-62
2022/03/21 04:23:11;;;;;;;9.60;8.30;;;17.20;55.10;;;;;;10377922;28;20112;-62
2022/03/21 04:28:14;;;;;;;9.90;8.73;;;17.20;55.10;;;;;;10377683;28;20609;-62
2022/03/21 04:33:15;;;;;;;9.10;8.00;;;17.20;55.00;;;;;;10373218;28;20157;-62
2022/03/21 04:38:17;;;;;;;8.05;7.25;;;17.20;55.00;;;;;;10377282;28;20026;-62
2022/03/21 04:43:19;;;;;;;10.30;9.20;;;17.20;55.00;;;;;;10377196;28;20497;-61
2022/03/21 04:48:20;;;;;;;8.95;8.05;;;17.20;55.00;;;;;;10377196;28;20030;-62
2022/03/21 04:53:22;;;;;;;9.90;8.93;;;17.10;55.10;;;;;;10389205;28;20022;-62
2022/03/21 04:58:23;;;;;;;9.63;8.70;;;17.10;55.00;;;;;;10376668;28;20355;-62
2022/03/21 05:03:23;;;;;;;8.55;7.68;;;17.10;55.00;;;;;;10378229;28;20165;-62
2022/03/21 05:08:24;;;;;;;9.82;8.93;;;17.20;54.80;;;;;;10417183;28;20066;-62
2022/03/21 05:13:25;;;;;;;8.73;7.85;;;17.10;55.60;;;;;;10386395;28;20083;-62
2022/03/21 05:18:27;;;;;;;8.75;7.85;;;17.10;54.80;;;;;;10415921;28;20096;-62
2022/03/21 05:39:25;;;;;;;8.80;8.00;;;17.20;54.40;;;;;;10411806;28;20045;-62
2022/03/21 05:44:25;;;;;;;9.57;8.55;;;17.30;54.30;;;;;;10390347;28;20037;-62
2022/03/21 05:49:26;;;;;;;8.82;7.90;;;17.20;54.30;;;;;;10409107;28;20038;-61
2022/03/21 05:54:27;;;;;;;12.23;8.13;;;17.20;54.50;;;;;;10392960;28;20105;-63
2022/03/21 06:04:48;;;;;;;10.65;8.20;;;17.20;54.80;;;;;;10388200;28;20049;-61
2022/03/21 06:09:49;;;;;;;14.10;7.43;;;17.30;55.00;;;;;;10377487;28;20039;-62
2022/03/21 06:14:50;;;;;;;11.82;7.78;;;17.40;55.70;;;;;;10398280;28;20037;-61
2022/03/21 06:19:51;;;;;;;12.07;7.43;;;17.40;56.70;;;;;;10372271;28;20053;-60
2022/03/21 06:24:52;;;;;;;14.25;7.85;;;17.50;56.40;;;;;;10410938;28;20091;-57
2022/03/21 06:29:52;;;;;;;22.30;9.50;;;17.40;56.60;;;;;;10399419;28;20489;-60
2022/03/21 06:34:53;;;;;;;21.63;9.02;;;17.30;57.20;;;;;;10402422;28;20123;-59
2022/03/21 06:39:54;;;;;;;19.25;8.55;;;17.30;56.80;;;;;;10410523;28;20104;-59
2022/03/21 06:44:54;;;;;;;24.65;9.13;;;17.20;57.60;;;;;;10366584;28;20053;-63
2022/03/21 06:49:55;;;;;;;20.65;9.38;;;17.30;57.30;;;;;;10375158;28;20057;-61
2022/03/21 06:54:56;;;;;;;22.23;8.95;;;17.10;56.90;;;;;;10387547;28;20033;-60
2022/03/21 06:59:57;;;;;;;25.02;10.00;;;17.10;56.70;;;;;;10391914;28;20040;-62
2022/03/21 07:04:58;;;;;;;19.17;9.40;;;17.00;56.80;;;;;;10380835;28;20057;-61
2022/03/21 07:09:58;;;;;;;29.48;10.18;;;17.10;56.90;;;;;;10384457;28;20061;-59
2022/03/21 07:14:59;;;;;;;19.15;9.40;;;17.00;56.90;;;;;;10377686;28;20053;-63
2022/03/21 07:20:00;;;;;;;20.17;9.20;;;17.00;56.80;;;;;;10368773;28;20065;-63
2022/03/21 07:25:01;;;;;;;18.17;9.70;;;17.00;56.80;;;;;;10370093;28;20036;-64
2022/03/21 07:30:02;;;;;;;19.45;9.60;;;16.90;56.50;;;;;;10370263;28;20050;-64
2022/03/21 07:35:03;;;;;;;24.73;8.85;;;16.90;56.50;;;;;;10369187;28;20487;-63
2022/03/21 07:40:04;;;;;;;24.73;9.68;;;16.90;56.60;;;;;;10369981;28;20029;-61
2022/03/21 07:50:27;;;;;;;19.77;8.45;;;16.80;57.90;;;;;;10402778;28;20037;-62
2022/03/21 07:55:32;;;;;;;14.02;7.88;;;16.90;57.40;;;;;;10365080;28;20453;-63
2022/03/21 08:00:33;;;;;;;16.85;8.68;;;16.90;57.00;;;;;;10378161;28;20116;-63
2022/03/21 08:05:33;;;;;;;16.85;8.43;;;16.80;57.20;;;;;;10396926;28;20500;-63
2022/03/21 08:10:35;;;;;;;12.80;9.40;;;16.80;57.60;;;;;;10384462;28;20054;-63
2022/03/21 08:15:36;;;;;;;19.95;10.10;;;16.70;58.10;;;;;;10378166;28;20030;-63
2022/03/21 08:20:39;;;;;;;17.63;8.20;;;16.70;59.60;;;;;;10377395;28;20108;-64
2022/03/21 08:25:48;;;;;;;16.67;7.45;;;16.60;59.50;;;;;;10381301;28;20065;-64
2022/03/21 08:30:49;;;;;;;16.85;7.25;;;16.60;59.50;;;;;;10378761;28;20073;-63
2022/03/21 08:35:49;;;;;;;14.23;7.72;;;16.60;59.20;;;;;;10396680;28;20039;-63
2022/03/21 08:40:50;;;;;;;18.92;8.20;;;16.60;59.20;;;;;;10386075;28;20072;-65
2022/03/21 08:45:51;;;;;;;19.00;7.22;;;16.60;59.40;;;;;;10417298;28;20112;-63
2022/03/21 08:50:52;;;;;;;14.00;7.28;;;16.60;59.20;;;;;;10410949;28;20038;-65
2022/03/21 08:55:52;;;;;;;19.20;6.90;;;16.60;58.90;;;;;;10374348;28;20471;-64
2022/03/21 09:00:53;;;;;;;13.80;7.13;;;16.60;59.00;;;;;;10377334;28;20061;-64
2022/03/21 09:05:54;;;;;;;13.93;7.60;;;16.60;58.90;;;;;;10362199;28;20100;-64
2022/03/21 09:10:55;;;;;;;15.15;6.47;;;16.60;58.80;;;;;;10375908;28;20038;-64
2022/03/21 09:15:55;;;;;;;19.27;6.90;;;16.60;58.70;;;;;;10406878;28;20032;-64
2022/03/21 09:20:56;;;;;;;12.05;6.43;;;16.60;58.70;;;;;;10354176;28;20120;-64
2022/03/21 09:25:57;;;;;;;11.65;6.25;;;16.60;58.70;;;;;;10371446;28;20027;-64
2022/03/21 09:30:59;;;;;;;14.38;5.80;;;16.60;58.70;;;;;;10384444;28;20128;-64
2022/03/21 09:36:00;;;;;;;14.43;7.43;;;16.60;58.60;;;;;;10415405;28;20379;-64
2022/03/21 09:41:03;;;;;;;14.07;6.40;;;16.70;58.60;;;;;;10415069;28;20110;-62
2022/03/21 09:46:04;;;;;;;12.27;6.10;;;16.60;58.40;;;;;;10361881;28;20117;-63
2022/03/21 09:51:04;;;;;;;12.93;6.53;;;16.70;58.40;;;;;;10369805;28;20033;-63
2022/03/21 09:56:08;;;;;;;10.65;6.15;;;16.70;58.30;;;;;;10358870;28;20029;-63
2022/03/21 10:01:13;;;;;;;15.25;6.90;;;16.70;58.40;;;;;;10373430;28;20385;-64
2022/03/21 10:06:40;;;;;;;11.07;6.15;;;16.80;58.50;;;;;;10398461;28;20413;-64
2022/03/21 10:11:52;;;;;;;12.07;5.68;;;16.80;58.50;;;;;;10411279;28;20453;-61
2022/03/21 10:17:05;;;;;;;13.90;5.90;;;16.90;58.70;;;;;;10372407;28;20033;-63
2022/03/21 10:22:17;;;;;;;14.80;6.70;;;16.90;58.70;;;;;;10372862;28;20026;-63
2022/03/21 10:27:42;;;;;;;10.85;4.97;;;16.80;58.50;;;;;;10355152;28;20413;-62
2022/03/21 10:32:54;;;;;;;12.00;5.78;;;16.90;58.50;;;;;;10399834;28;20029;-62
2022/03/21 10:38:01;;;;;;;10.05;5.15;;;16.90;58.50;;;;;;10411924;28;20030;-61
2022/03/21 10:43:06;;;;;;;8.88;5.10;;;16.90;58.50;;;;;;10382443;28;20116;-62
2022/03/21 10:48:10;;;;;;;9.80;5.32;;;16.90;58.40;;;;;;10412866;28;20040;-61
2022/03/21 10:53:16;;;;;;;9.00;5.65;;;16.90;58.40;;;;;;10382243;28;20026;-62
2022/03/21 10:58:40;;;;;;;7.05;5.30;;;16.90;58.30;;;;;;10412519;28;20365;-62
2022/03/21 11:03:44;;;;;;;9.05;5.70;;;17.00;58.30;;;;;;10395062;28;20040;-62
2022/03/21 11:08:50;;;;;;;15.32;5.47;;;17.00;58.20;;;;;;10371487;28;20080;-61
2022/03/21 11:13:54;;;;;;;6.28;4.45;;;17.00;58.00;;;;;;10371895;28;20026;-62
2022/03/21 11:18:56;;;;;;;9.52;4.88;;;17.00;58.00;;;;;;10376343;28;20046;-62
2022/03/21 11:23:57;;;;;;;7.18;5.18;;;17.10;58.10;;;;;;10375365;28;20464;-62
2022/03/21 11:29:06;;;;;;;8.20;4.55;;;17.10;57.90;;;;;;10388051;28;20046;-62
2022/03/21 11:35:04;;;;;;;6.55;5.13;;;17.10;57.90;;;;;;10379773;28;20181;-61
2022/03/21 11:40:32;;;;;;;7.65;4.30;;;17.10;57.90;;;;;;10182960;29;20036;-61
2022/03/21 11:45:37;;;;;;;7.63;4.07;;;17.10;57.90;;;;;;10375007;28;20099;-62
2022/03/21 11:50:37;;;;;;;6.75;4.57;;;17.20;57.90;;;;;;10419900;28;20146;-61
2022/03/21 11:55:41;;;;;;;6.10;4.00;;;17.20;57.80;;;;;;10388339;28;20146;-61
2022/03/21 12:01:14;;;;;;;6.10;4.05;;;17.20;57.80;;;;;;10388864;28;20482;-62
2022/03/21 12:06:44;;;;;;;6.80;4.32;;;17.20;57.90;;;;;;10374261;28;20040;-60
2022/03/21 12:11:48;;;;;;;7.05;4.18;;;17.30;57.90;;;;;;10347682;28;20042;-59
2022/03/21 12:17:01;;;;;;;6.78;4.60;;;17.30;58.00;;;;;;10378362;28;20038;-60
2022/03/21 12:22:27;;;;;;;7.60;4.63;;;17.30;58.10;;;;;;10373348;28;20030;-60
2022/03/21 12:27:46;;;;;;;7.57;4.63;;;17.30;58.40;;;;;;10376892;28;20041;-60
2022/03/21 12:32:59;;;;;;;8.63;4.20;;;17.30;58.70;;;;;;10377087;28;20026;-60
2022/03/21 12:38:05;;;;;;;10.43;4.18;;;17.30;58.80;;;;;;10376811;28;20037;-63
2022/03/21 12:43:06;;;;;;;5.43;3.60;;;17.40;58.70;;;;;;10376789;28;20599;-64
2022/03/21 12:48:09;;;;;;;6.50;3.90;;;17.40;58.50;;;;;;10376217;28;20057;-63
2022/03/21 12:53:11;;;;;;;7.07;3.53;;;17.30;58.50;;;;;;10383564;28;20029;-63
2022/03/21 12:58:14;;;;;;;7.05;4.18;;;17.30;58.40;;;;;;10417042;28;20079;-63
2022/03/21 13:03:16;;;;;;;6.72;3.58;;;17.40;58.40;;;;;;10402831;28;20033;-62
2022/03/21 13:13:43;;;;;;;6.93;4.13;;;17.40;58.20;;;;;;10375614;28;20037;-63
2022/03/21 13:18:44;;;;;;;5.68;3.83;;;17.40;58.20;;;;;;10375378;28;20609;-63
2022/03/21 13:23:46;;;;;;;6.95;4.10;;;17.40;58.20;;;;;;10341469;28;20033;-62
2022/03/21 13:28:48;;;;;;;8.30;4.05;;;17.40;58.10;;;;;;10374997;28;20057;-62
2022/03/21 13:33:54;;;;;;;6.50;3.40;;;17.30;58.20;;;;;;10357089;28;20041;-62
2022/03/21 13:39:22;;;;;;;6.35;4.25;;;17.40;58.30;;;;;;10382602;28;20033;-62
2022/03/21 13:44:30;;;;;;;4.50;3.42;;;17.40;58.50;;;;;;10405655;28;20025;-62
2022/03/21 13:50:02;;;;;;;7.18;3.67;;;17.40;58.50;;;;;;10381410;28;20462;-62
2022/03/21 13:55:03;;;;;;;6.35;4.45;;;17.40;58.40;;;;;;10348157;28;20048;-62
2022/03/21 14:00:13;;;;;;;5.30;3.67;;;17.40;58.50;;;;;;10382600;28;20026;-61
2022/03/21 14:05:18;;;;;;;5.50;4.47;;;17.40;58.50;;;;;;10390412;28;20087;-62
2022/03/21 14:10:22;;;;;;;5.88;3.75;;;17.40;58.60;;;;;;10383853;28;20025;-62
2022/03/21 14:15:25;;;;;;;5.97;4.28;;;17.30;58.60;;;;;;10383382;28;20030;-62
2022/03/21 14:20:25;;;;;;;6.72;4.18;;;17.30;58.50;;;;;;10382777;28;20022;-62
2022/03/21 14:30:45;;;;;;;7.57;5.27;;;17.30;58.40;;;;;;10392516;28;20062;-61
2022/03/21 14:35:46;;;;;;;11.27;5.70;;;17.30;58.30;;;;;;10372346;28;20567;-61
2022/03/21 14:40:47;;;;;;;7.90;4.82;;;17.30;58.50;;;;;;10367882;28;20398;-61
2022/03/21 14:45:48;;;;;;;7.65;4.80;;;17.30;58.50;;;;;;10372816;28;20116;-61
2022/03/21 14:50:52;;;;;;;8.35;4.95;;;17.30;58.60;;;;;;10372467;28;20030;-61
2022/03/21 14:55:54;;;;;;;8.30;5.05;;;17.30;58.40;;;;;;10368320;28;20477;-61
2022/03/21 15:00:55;;;;;;;7.47;4.90;;;17.30;58.50;;;;;;10387636;28;20049;-61
2022/03/21 15:05:56;;;;;;;6.03;4.93;;;17.30;58.50;;;;;;10379680;28;20028;-61
2022/03/21 15:10:57;;;;;;;7.82;5.60;;;17.30;58.60;;;;;;10412716;28;20029;-61
2022/03/21 15:15:57;;;;;;;8.80;5.75;;;17.30;58.60;;;;;;10368643;28;20083;-61
2022/03/21 15:20:58;;;;;;;8.13;5.63;;;17.30;58.70;;;;;;10368109;28;20041;-61
2022/03/21 15:26:00;;;;;;;7.68;5.72;;;17.30;58.80;;;;;;10412052;28;20030;-61
2022/03/21 15:31:02;;;;;;;8.15;5.47;;;17.20;58.70;;;;;;10381353;28;20045;-61
2022/03/21 15:41:40;;;;;;;8.18;5.88;;;17.20;58.80;;;;;;10411888;28;20041;-61
2022/03/21 15:46:41;;;;;;;8.45;6.65;;;17.20;58.90;;;;;;10411985;28;20423;-61
2022/03/21 15:51:43;;;;;;;7.47;5.20;;;17.20;58.90;;;;;;10411673;28;20038;-62
2022/03/21 15:56:44;;;;;;;8.15;5.63;;;17.10;58.90;;;;;;10371332;28;20398;-61
2022/03/21 16:01:45;;;;;;;31.23;8.88;;;17.10;59.00;;;;;;10385141;28;20037;-62
2022/03/21 16:06:46;;;;;;;13.27;6.90;;;17.10;59.30;;;;;;10406873;28;20097;-62
2022/03/21 16:11:47;;;;;;;15.77;6.85;;;17.10;59.50;;;;;;10387047;28;20042;-62
2022/03/21 16:16:47;;;;;;;15.25;7.97;;;17.20;59.50;;;;;;10390329;28;20044;-62
2022/03/21 16:21:48;;;;;;;18.58;7.05;;;17.20;59.80;;;;;;10374050;28;20367;-62
2022/03/21 16:26:51;;;;;;;15.57;6.90;;;17.20;59.90;;;;;;10409862;28;20045;-61
2022/03/21 16:31:52;;;;;;;19.33;7.72;;;17.20;60.20;;;;;;10417672;28;20420;-61
2022/03/21 16:36:53;;;;;;;17.67;7.25;;;17.20;60.30;;;;;;10385918;28;20056;-61
2022/03/21 16:41:53;;;;;;;17.15;7.35;;;17.20;60.10;;;;;;10388037;28;20073;-60
2022/03/21 16:46:55;;;;;;;12.50;6.60;;;17.20;59.90;;;;;;10376246;28;20068;-60
2022/03/21 16:51:55;;;;;;;15.68;6.80;;;17.20;59.80;;;;;;10385927;28;20792;-61
2022/03/21 16:56:58;;;;;;;17.40;8.88;;;17.10;59.60;;;;;;10376316;28;20033;-61
2022/03/21 17:01:59;;;;;;;17.30;7.13;;;17.10;64.40;;;;;;10375545;28;20041;-60
2022/03/21 17:07:06;;;;;;;17.23;8.07;;;17.30;64.30;;;;;;10406947;28;20117;-58
2022/03/21 17:12:10;;;;;;;20.17;9.32;;;17.40;63.80;;;;;;10415476;28;20021;-60
2022/03/21 17:17:12;;;;;;;19.27;8.07;;;17.30;63.70;;;;;;10416308;28;20400;-61
2022/03/21 17:27:32;;;;;;;17.23;8.27;;;17.10;64.40;;;;;;10415808;28;20053;-60
2022/03/21 17:32:34;;;;;;;21.30;8.98;;;17.10;64.60;;;;;;10371339;28;20428;-61
2022/03/21 17:37:35;;;;;;;19.63;7.82;;;17.00;62.80;;;;;;10415660;28;20029;-62
2022/03/21 17:42:35;;;;;;;27.20;8.85;;;17.00;63.50;;;;;;10415337;28;20026;-61
2022/03/21 17:47:37;;;;;;;21.90;8.48;;;17.00;64.10;;;;;;10384390;28;20061;-60
2022/03/21 17:52:39;;;;;;;22.20;7.63;;;17.10;63.70;;;;;;10376484;28;20378;-60
2022/03/21 17:57:41;;;;;;;21.70;8.80;;;17.10;63.50;;;;;;10394376;28;20033;-61
2022/03/21 18:02:42;;;;;;;17.80;7.60;;;17.10;63.50;;;;;;10367885;28;20030;-61
2022/03/21 18:07:42;;;;;;;28.55;9.77;;;17.10;63.90;;;;;;10403629;28;20123;-61
2022/03/21 18:12:43;;;;;;;34.13;8.75;;;17.00;63.90;;;;;;10403309;28;20072;-61
2022/03/21 18:17:44;;;;;;;22.25;8.68;;;17.00;63.90;;;;;;10365912;28;20044;-61
2022/03/21 18:22:47;;;;;;;17.77;8.18;;;17.00;63.60;;;;;;10388647;28;20076;-60
2022/03/21 18:27:48;;;;;;;19.30;7.70;;;16.90;63.40;;;;;;10412223;28;20042;-61
2022/03/21 18:32:48;;;;;;;16.45;8.52;;;16.90;63.10;;;;;;10372147;28;20418;-59
2022/03/21 18:37:49;;;;;;;20.35;8.80;;;16.80;63.00;;;;;;10371842;28;20060;-60
2022/03/21 18:42:50;;;;;;;14.73;7.20;;;16.80;62.80;;;;;;10411697;28;20375;-59
2022/03/21 18:47:50;;;;;;;14.38;7.32;;;16.80;62.70;;;;;;10410791;28;20087;-62
2022/03/21 18:52:54;;;;;;;16.42;7.80;;;16.80;62.50;;;;;;10359828;28;20056;-61
2022/03/21 18:57:55;;;;;;;15.55;7.63;;;16.70;62.50;;;;;;10360762;28;20153;-61
2022/03/21 19:02:56;;;;;;;15.98;7.38;;;16.80;62.40;;;;;;10386534;28;20029;-62
2022/03/21 19:07:56;;;;;;;12.98;7.07;;;16.80;62.30;;;;;;10368597;28;20107;-61
2022/03/21 19:12:57;;;;;;;10.35;7.15;;;16.70;62.10;;;;;;10378920;28;20374;-61
2022/03/21 19:17:59;;;;;;;13.32;7.85;;;16.70;62.00;;;;;;10366909;28;20034;-61
2022/03/21 19:23:00;;;;;;;11.38;7.13;;;16.70;62.50;;;;;;10410244;28;20026;-61
2022/03/21 19:28:00;;;;;;;9.98;6.28;;;16.70;61.80;;;;;;10359318;28;20038;-61
2022/03/21 19:33:02;;;;;;;10.70;7.22;;;16.70;61.80;;;;;;10366348;28;20065;-61
2022/03/21 19:38:04;;;;;;;14.35;7.18;;;16.70;61.50;;;;;;10371951;28;20030;-62
2022/03/21 19:43:05;;;;;;;14.05;7.68;;;16.70;61.50;;;;;;10377567;28;20107;-61
2022/03/21 19:48:07;;;;;;;15.35;8.35;;;16.70;61.40;;;;;;10380465;28;20029;-60
2022/03/21 19:53:08;;;;;;;12.90;8.60;;;16.70;61.40;;;;;;10390893;28;20025;-60
2022/03/21 19:58:09;;;;;;;11.38;7.40;;;16.70;61.30;;;;;;10368317;28;20030;-60
2022/03/21 20:03:09;;;;;;;10.10;7.22;;;16.70;61.10;;;;;;10390167;28;20041;-61
2022/03/21 20:08:11;;;;;;;12.98;7.22;;;16.80;60.90;;;;;;10389302;28;20121;-60
2022/03/21 20:13:12;;;;;;;10.65;7.28;;;16.80;60.90;;;;;;10379034;28;20029;-60
2022/03/21 20:18:14;;;;;;;15.23;7.63;;;16.80;60.70;;;;;;10406459;28;20029;-60
2022/03/21 20:23:14;;;;;;;10.40;7.05;;;16.80;60.70;;;;;;10398221;28;20470;-59
2022/03/21 20:28:15;;;;;;;12.20;7.18;;;16.80;60.70;;;;;;10378688;28;20037;-61
2022/03/21 20:33:16;;;;;;;10.10;6.90;;;16.80;60.70;;;;;;10378552;28;20076;-60
2022/03/21 20:38:17;;;;;;;8.30;6.55;;;16.70;60.70;;;;;;10357776;28;20032;-61
2022/03/21 20:43:17;;;;;;;13.30;6.97;;;16.80;60.80;;;;;;10378665;28;20044;-60
2022/03/21 20:48:18;;;;;;;9.93;6.72;;;16.80;60.70;;;;;;10376885;28;20059;-60
2022/03/21 20:53:18;;;;;;;11.30;7.95;;;16.70;60.60;;;;;;10404211;28;20091;-60
2022/03/21 20:58:19;;;;;;;10.18;7.10;;;16.70;60.50;;;;;;10377433;28;20113;-60
2022/03/21 21:03:20;;;;;;;7.78;6.38;;;16.70;60.50;;;;;;10376118;28;20029;-60
2022/03/21 21:08:21;;;;;;;9.65;7.13;;;16.70;60.50;;;;;;10417489;28;20116;-60
2022/03/21 21:13:25;;;;;;;10.45;6.47;;;16.70;60.40;;;;;;10416541;28;20040;-61
2022/03/21 21:18:26;;;;;;;9.27;6.50;;;16.80;60.40;;;;;;10379795;28;20087;-60
2022/03/21 21:23:27;;;;;;;11.50;7.55;;;16.80;60.20;;;;;;10378369;28;20087;-60
2022/03/21 21:28:29;;;;;;;9.90;6.72;;;16.80;60.10;;;;;;10416440;28;20045;-60
2022/03/21 21:33:30;;;;;;;8.27;6.88;;;16.80;60.10;;;;;;10414458;28;20037;-60
2022/03/21 21:38:31;;;;;;;8.52;6.63;;;16.80;60.00;;;;;;10416389;28;20118;-60
2022/03/21 21:43:32;;;;;;;11.48;8.07;;;16.80;60.00;;;;;;10415188;28;20068;-60
2022/03/21 21:48:33;;;;;;;10.82;7.32;;;16.80;60.00;;;;;;10415183;28;20040;-59
2022/03/21 21:53:34;;;;;;;8.55;6.65;;;16.70;60.00;;;;;;10357605;28;20044;-60
2022/03/21 21:58:35;;;;;;;9.65;7.07;;;16.70;60.00;;;;;;10374033;28;20032;-60
2022/03/21 22:03:36;;;;;;;9.50;6.97;;;16.70;60.00;;;;;;10378174;28;20378;-60
2022/03/21 22:08:37;;;;;;;8.68;6.05;;;16.80;59.90;;;;;;10414993;28;20033;-60
2022/03/21 22:13:38;;;;;;;10.15;7.45;;;16.80;59.80;;;;;;10389062;28;20038;-60
2022/03/21 22:18:38;;;;;;;9.57;7.40;;;16.80;59.70;;;;;;10373878;28;20477;-60
2022/03/21 22:23:39;;;;;;;8.88;6.88;;;16.80;59.60;;;;;;10373685;28;20046;-60
2022/03/21 22:28:40;;;;;;;8.77;6.68;;;16.80;59.90;;;;;;10373426;28;20116;-60
2022/03/21 22:33:40;;;;;;;9.27;7.55;;;16.80;59.40;;;;;;10371030;28;20510;-60
2022/03/21 22:38:41;;;;;;;12.15;7.50;;;16.80;59.50;;;;;;10373135;28;20065;-59
2022/03/21 22:49:01;;;;;;;8.80;6.50;;;16.80;59.50;;;;;;10384506;28;20049;-60
2022/03/21 22:54:02;;;;;;;8.50;7.10;;;16.80;59.60;;;;;;10368075;28;20117;-59
2022/03/21 22:59:07;;;;;;;8.80;6.43;;;16.70;59.60;;;;;;10372448;28;20103;-60
2022/03/21 23:04:09;;;;;;;11.77;6.82;;;16.80;59.40;;;;;;10379439;28;20029;-60
2022/03/21 23:09:11;;;;;;;8.45;7.55;;;16.80;59.20;;;;;;10410450;28;20033;-60
2022/03/21 23:14:11;;;;;;;7.28;6.20;;;16.80;59.10;;;;;;10372300;28;20069;-60
2022/03/21 23:19:12;;;;;;;9.38;6.53;;;16.80;59.00;;;;;;10372205;28;20528;-60
2022/03/21 23:24:13;;;;;;;10.07;7.25;;;16.80;59.10;;;;;;10372052;28;20406;-60
2022/03/21 23:29:13;;;;;;;9.57;7.05;;;16.80;59.20;;;;;;10371968;28;20052;-60
2022/03/21 23:34:19;;;;;;;9.65;6.97;;;16.80;59.30;;;;;;10369793;28;20064;-60
2022/03/21 23:39:20;;;;;;;8.90;7.07;;;16.70;59.20;;;;;;10398117;28;20401;-60
2022/03/21 23:44:21;;;;;;;8.80;6.43;;;16.70;59.20;;;;;;10389158;28;20038;-60
2022/03/21 23:49:23;;;;;;;8.48;6.97;;;16.80;59.10;;;;;;10361877;28;20441;-60
2022/03/21 23:54:24;;;;;;;7.80;6.40;;;16.90;58.90;;;;;;10355963;28;20414;-60
2022/03/21 23:59:25;;;;;;;7.53;6.55;;;16.80;58.80;;;;;;10388935;28;20053;-60
